Time;durP1;ratioP1;P1;durP2;ratioP2;P2;SDS_P1;SDS_P2;PMS_P1;PMS_P2;Temp;Humidity;BMP_temperature;BMP_pressure;BME280_temperature;BME280_humidity;BME280_pressure;Samples;Min_cycle;Max_cycle;Signal;HPM_P1;HPM_P2
2022/09/05 00:00:25;;;;;;;3.65;2.80;;;20.10;98.40;;;;;;5011705;28;20389;-73
2022/09/05 00:03:17;;;;;;;3.58;2.50;;;20.20;98.70;;;;;;5010543;28;20515;-73
2022/09/05 00:05:46;;;;;;;4.67;3.00;;;20.20;98.80;;;;;;5010532;28;20042;-74
2022/09/05 00:08:41;;;;;;;4.55;2.50;;;20.10;98.40;;;;;;5010826;28;20038;-74
2022/09/05 00:11:31;;;;;;;3.08;2.50;;;20.20;98.90;;;;;;5010152;28;20065;-73
2022/09/05 00:14:05;;;;;;;4.53;2.88;;;20.00;98.90;;;;;;5010049;28;20042;-73
2022/09/05 00:16:52;;;;;;;6.95;3.17;;;20.00;99.00;;;;;;5011995;28;20396;-73
2022/09/05 00:19:40;;;;;;;3.67;2.88;;;20.00;98.40;;;;;;5010464;28;20399;-73
2022/09/05 00:22:25;;;;;;;3.30;2.50;;;20.00;99.00;;;;;;5010649;28;20141;-74
2022/09/05 00:25:07;;;;;;;3.30;2.45;;;20.10;98.70;;;;;;5010555;28;20050;-73
2022/09/05 00:27:50;;;;;;;4.45;2.55;;;20.30;99.10;;;;;;5014069;28;20041;-73
2022/09/05 00:30:18;;;;;;;4.90;3.00;;;19.80;98.70;;;;;;5014367;28;20049;-73
2022/09/05 00:33:06;;;;;;;4.32;2.60;;;21.70;99.40;;;;;;4997878;28;20507;-74
2022/09/05 00:35:50;;;;;;;3.65;2.60;;;20.00;98.90;;;;;;5015474;28;20117;-73
2022/09/05 00:38:22;;;;;;;4.35;2.40;;;19.80;99.10;;;;;;5015494;28;20040;-73
2022/09/05 00:40:55;;;;;;;4.00;2.92;;;19.90;99.10;;;;;;5014173;28;20056;-73
2022/09/05 00:43:46;;;;;;;3.95;2.90;;;19.90;99.20;;;;;;5013993;28;20056;-74
2022/09/05 00:46:30;;;;;;;4.32;2.72;;;20.80;99.50;;;;;;5013213;28;20160;-73
2022/09/05 00:49:28;;;;;;;4.30;2.80;;;19.90;99.40;;;;;;5013875;28;20539;-73
2022/09/05 00:52:26;;;;;;;4.90;2.70;;;19.70;99.10;;;;;;5013705;28;20052;-73
2022/09/05 00:55:09;;;;;;;3.63;2.65;;;19.90;99.00;;;;;;5014943;28;20450;-74
2022/09/05 00:58:07;;;;;;;9.18;3.05;;;19.60;99.00;;;;;;4997741;28;20045;-74
2022/09/05 01:00:47;;;;;;;7.93;2.97;;;19.90;99.00;;;;;;5015091;28;20048;-74
2022/09/05 01:03:55;;;;;;;4.20;2.95;;;19.70;99.00;;;;;;5013884;28;20077;-74
2022/09/05 01:07:00;;;;;;;4.00;2.78;;;19.70;99.20;;;;;;5013612;28;20514;-74
2022/09/05 01:10:02;;;;;;;4.45;3.10;;;19.60;99.10;;;;;;5013412;28;20050;-74
2022/09/05 01:12:55;;;;;;;3.72;3.33;;;19.80;99.40;;;;;;5013256;28;20037;-74
2022/09/05 01:15:42;;;;;;;4.03;2.90;;;19.80;99.20;;;;;;4996748;28;20077;-74
2022/09/05 01:18:26;;;;;;;3.78;3.22;;;19.70;99.10;;;;;;5014392;28;20558;-74
2022/09/05 01:21:10;;;;;;;5.15;2.80;;;19.60;99.10;;;;;;5015614;28;20042;-74
2022/09/05 01:24:17;;;;;;;6.45;3.03;;;19.60;99.60;;;;;;5015309;28;20050;-73
2022/09/05 01:27:15;;;;;;;3.70;3.20;;;19.50;99.70;;;;;;4985629;28;20141;-74
2022/09/05 01:29:57;;;;;;;4.68;3.33;;;19.50;99.30;;;;;;5005870;28;20588;-74
2022/09/05 01:32:36;;;;;;;4.75;3.15;;;19.50;99.70;;;;;;5014857;28;20061;-74
2022/09/05 01:35:39;;;;;;;4.40;3.08;;;19.30;99.50;;;;;;5013085;28;20077;-74
2022/09/05 01:38:25;;;;;;;4.05;3.30;;;19.50;99.20;;;;;;5014131;28;20038;-73
2022/09/05 01:41:10;;;;;;;5.00;3.75;;;19.40;99.20;;;;;;5020275;28;20052;-74
2022/09/05 01:43:35;;;;;;;8.18;3.42;;;19.40;99.20;;;;;;5039517;28;20022;-73
2022/09/05 01:46:29;;;;;;;4.10;3.58;;;19.30;99.60;;;;;;5002262;28;20050;-74
2022/09/05 01:49:02;;;;;;;7.45;3.72;;;19.40;99.30;;;;;;4996765;28;20041;-73
2022/09/05 01:51:48;;;;;;;6.18;3.83;;;19.30;99.10;;;;;;5012623;28;20045;-74
2022/09/05 01:54:58;;;;;;;4.22;3.05;;;19.40;99.80;;;;;;5013245;28;20033;-74
2022/09/05 01:57:40;;;;;;;4.35;3.40;;;19.10;99.60;;;;;;5003190;28;20046;-73
2022/09/05 02:00:11;;;;;;;7.03;3.95;;;19.20;99.70;;;;;;4995936;28;20046;-74
2022/09/05 02:03:02;;;;;;;5.88;3.40;;;19.10;99.90;;;;;;5012273;28;20088;-74
2022/09/05 02:05:54;;;;;;;5.03;3.45;;;19.10;99.80;;;;;;5013381;28;20160;-74
2022/09/05 02:08:49;;;;;;;5.40;3.40;;;19.00;99.50;;;;;;5012422;28;20034;-73
2022/09/05 02:11:15;;;;;;;4.47;3.72;;;19.00;99.80;;;;;;4985669;28;20045;-74
2022/09/05 02:14:22;;;;;;;4.32;3.30;;;18.80;99.90;;;;;;5012228;28;20041;-73
2022/09/05 02:16:48;;;;;;;6.63;3.78;;;18.90;99.90;;;;;;4993519;28;20364;-74
2022/09/05 02:19:30;;;;;;;5.93;3.55;;;19.10;99.90;;;;;;5013194;28;20510;-74
2022/09/05 02:22:08;;;;;;;4.40;3.63;;;19.00;99.90;;;;;;5012168;28;20041;-74
2022/09/05 02:24:43;;;;;;;5.50;3.88;;;18.60;99.80;;;;;;5013042;28;20054;-74
2022/09/05 02:27:40;;;;;;;4.85;3.90;;;18.90;99.90;;;;;;5013074;28;20507;-73
2022/09/05 02:30:20;;;;;;;6.53;4.15;;;18.70;99.90;;;;;;5012093;28;20057;-73
2022/09/05 02:33:13;;;;;;;7.20;3.85;;;18.70;99.90;;;;;;5013313;28;20065;-74
2022/09/05 02:36:03;;;;;;;4.47;3.58;;;18.60;99.90;;;;;;5013399;28;20060;-74
2022/09/05 02:38:45;;;;;;;4.25;3.85;;;18.50;99.90;;;;;;4995332;28;20194;-74
2022/09/05 02:41:35;;;;;;;6.00;4.07;;;18.50;99.90;;;;;;5011772;28;20049;-74
2022/09/05 02:44:17;;;;;;;6.75;3.83;;;18.40;99.90;;;;;;5011588;28;20465;-74
2022/09/05 02:47:03;;;;;;;4.82;3.83;;;18.50;99.90;;;;;;4995701;28;20053;-74
2022/09/05 02:49:44;;;;;;;6.22;4.28;;;18.50;99.90;;;;;;5012815;28;20081;-74
2022/09/05 02:52:14;;;;;;;5.88;4.03;;;18.90;99.90;;;;;;5012703;28;20085;-73
2022/09/05 02:54:43;;;;;;;6.20;4.00;;;18.50;99.90;;;;;;5012420;28;20100;-73
2022/09/05 02:57:26;;;;;;;7.15;4.25;;;18.30;99.90;;;;;;5012892;28;20052;-74
2022/09/05 03:00:27;;;;;;;7.40;4.30;;;18.40;99.90;;;;;;5011334;28;20268;-74
2022/09/05 03:03:17;;;;;;;4.40;3.47;;;18.40;99.90;;;;;;5012606;28;20096;-73
2022/09/05 03:05:55;;;;;;;5.90;4.10;;;18.30;99.90;;;;;;5012476;28;20050;-73
2022/09/05 03:08:43;;;;;;;5.15;4.10;;;18.30;99.90;;;;;;4995263;28;20045;-74
2022/09/05 03:11:56;;;;;;;8.30;4.53;;;18.10;99.90;;;;;;5011559;28;20041;-73
2022/09/05 03:14:46;;;;;;;6.38;4.25;;;18.20;99.90;;;;;;5011154;28;20117;-74
2022/09/05 03:17:37;;;;;;;5.78;4.32;;;18.20;99.90;;;;;;4994683;28;20041;-74
2022/09/05 03:20:08;;;;;;;9.38;4.50;;;18.30;99.90;;;;;;5035280;23;20055;-71
2022/09/05 03:23:00;;;;;;;9.20;4.95;;;18.20;99.90;;;;;;5031610;28;20415;-71
2022/09/05 03:26:01;;;;;;;6.65;4.95;;;18.20;99.90;;;;;;5029878;28;20045;-72
2022/09/05 03:28:54;;;;;;;5.82;4.50;;;18.00;99.90;;;;;;4987184;28;20068;-71
2022/09/05 03:31:55;;;;;;;6.43;4.65;;;18.30;99.90;;;;;;5011657;28;20065;-72
2022/09/05 03:34:47;;;;;;;7.35;4.90;;;18.10;99.90;;;;;;5011105;28;20456;-71
2022/09/05 03:37:49;;;;;;;4.95;4.45;;;18.20;99.90;;;;;;5010399;28;20038;-73
2022/09/05 03:40:33;;;;;;;6.10;4.90;;;18.00;99.90;;;;;;4994069;28;20111;-71
2022/09/05 03:43:23;;;;;;;5.05;4.50;;;18.00;99.90;;;;;;4993934;28;20042;-72
2022/09/05 03:46:25;;;;;;;7.88;5.15;;;18.10;99.90;;;;;;5011356;28;20037;-71
2022/09/05 03:49:10;;;;;;;7.57;4.80;;;18.00;99.90;;;;;;5010347;28;20068;-74
2022/09/05 03:52:05;;;;;;;7.57;4.90;;;17.80;99.90;;;;;;5010303;28;20049;-72
2022/09/05 03:54:50;;;;;;;5.70;5.07;;;18.00;99.90;;;;;;5011104;28;20526;-71
2022/09/05 03:57:37;;;;;;;8.32;4.78;;;17.80;99.90;;;;;;5011655;28;20170;-71
2022/09/05 04:00:10;;;;;;;12.10;5.15;;;17.80;99.90;;;;;;5012389;28;20053;-72
2022/09/05 04:02:58;;;;;;;10.88;5.50;;;17.90;99.90;;;;;;5014234;28;20128;-71
2022/09/05 04:05:30;;;;;;;5.70;5.05;;;17.60;99.90;;;;;;5013993;28;20048;-71
2022/09/05 04:08:08;;;;;;;6.90;4.93;;;17.70;99.90;;;;;;5015667;28;20038;-71
2022/09/05 04:11:05;;;;;;;5.57;5.03;;;17.80;99.90;;;;;;5015551;28;20324;-71
2022/09/05 04:13:37;;;;;;;8.25;4.97;;;17.60;99.90;;;;;;5015275;28;20046;-72
2022/09/05 04:16:16;;;;;;;8.57;5.40;;;17.60;99.90;;;;;;5013944;28;20503;-71
2022/09/05 04:19:12;;;;;;;5.53;5.00;;;17.80;99.90;;;;;;5013972;28;20563;-71
2022/09/05 04:21:44;;;;;;;9.05;5.68;;;17.70;99.90;;;;;;5015033;28;20041;-71
2022/09/05 04:24:21;;;;;;;10.77;5.30;;;17.50;99.90;;;;;;5013773;28;20462;-71
2022/09/05 04:26:59;;;;;;;7.60;5.85;;;17.40;99.90;;;;;;5013947;28;20045;-73
2022/09/05 04:29:47;;;;;;;6.53;5.57;;;17.60;99.90;;;;;;5013664;28;20053;-71
2022/09/05 04:32:32;;;;;;;8.77;4.93;;;17.40;99.90;;;;;;5015180;28;20041;-72
2022/09/05 04:35:05;;;;;;;5.32;4.60;;;18.10;99.90;;;;;;5013375;28;20050;-71
2022/09/05 04:37:46;;;;;;;7.15;5.78;;;17.40;99.90;;;;;;5014984;28;20163;-71
2022/09/05 04:40:49;;;;;;;5.30;4.80;;;17.50;99.90;;;;;;5013404;28;20125;-71
2022/09/05 04:43:19;;;;;;;6.07;4.95;;;17.40;99.90;;;;;;5014570;28;20412;-71
2022/09/05 04:45:55;;;;;;;12.50;5.93;;;17.40;99.90;;;;;;5014548;28;20042;-71
2022/09/05 04:48:31;;;;;;;8.57;5.68;;;17.40;99.90;;;;;;5013286;28;20099;-71
2022/09/05 04:51:27;;;;;;;7.70;5.32;;;17.20;99.90;;;;;;5013350;28;20444;-71
2022/09/05 04:54:09;;;;;;;6.45;5.70;;;17.30;99.90;;;;;;4971068;28;20416;-70
2022/09/05 04:56:43;;;;;;;7.32;5.85;;;17.40;99.90;;;;;;5013233;28;20045;-71
2022/09/05 04:59:22;;;;;;;8.82;5.85;;;18.00;99.90;;;;;;5013259;28;20510;-72
2022/09/05 05:02:00;;;;;;;7.45;5.93;;;17.20;99.90;;;;;;5013054;28;20049;-71
2022/09/05 05:04:26;;;;;;;8.23;5.38;;;17.30;99.90;;;;;;5014192;28;20038;-72
2022/09/05 05:07:12;;;;;;;6.60;5.88;;;17.20;99.90;;;;;;5013336;28;20130;-72
2022/09/05 05:09:53;;;;;;;7.72;5.43;;;17.30;99.90;;;;;;4996474;28;20092;-72
2022/09/05 05:12:19;;;;;;;6.18;5.50;;;17.20;99.90;;;;;;5011672;28;20326;-71
2022/09/05 05:15:03;;;;;;;6.10;5.50;;;17.20;99.90;;;;;;5012647;28;20049;-71
2022/09/05 05:17:40;;;;;;;8.05;6.15;;;17.10;99.90;;;;;;5014155;28;20038;-71
2022/09/05 05:20:27;;;;;;;9.02;5.90;;;17.30;99.90;;;;;;5012569;28;20049;-71
2022/09/05 05:23:14;;;;;;;6.93;5.78;;;17.20;99.90;;;;;;5014130;28;20046;-71
2022/09/05 05:25:52;;;;;;;8.27;6.15;;;17.10;99.90;;;;;;5013685;28;20046;-71
2022/09/05 05:28:30;;;;;;;7.47;6.25;;;17.00;99.90;;;;;;5012831;28;20424;-71
2022/09/05 05:31:12;;;;;;;6.70;5.47;;;17.20;99.90;;;;;;5012841;28;20045;-71
2022/09/05 05:33:39;;;;;;;9.07;6.75;;;17.00;99.90;;;;;;4996199;28;20046;-71
2022/09/05 05:36:13;;;;;;;10.73;5.93;;;17.20;99.90;;;;;;5012057;28;20081;-74
2022/09/05 05:38:52;;;;;;;10.43;6.53;;;17.40;99.90;;;;;;5012315;28;20069;-71
2022/09/05 05:41:17;;;;;;;6.53;5.60;;;17.20;99.90;;;;;;5013642;28;20037;-71
2022/09/05 05:43:45;;;;;;;8.10;6.28;;;17.40;99.90;;;;;;5012101;28;20064;-72
2022/09/05 05:46:22;;;;;;;7.38;5.70;;;17.40;99.90;;;;;;5012158;28;20046;-71
2022/09/05 05:48:50;;;;;;;7.97;5.85;;;18.30;99.90;;;;;;5012464;28;20046;-71
2022/09/05 05:51:52;;;;;;;6.80;6.10;;;17.50;99.90;;;;;;5013281;28;20042;-72
2022/09/05 05:54:17;;;;;;;7.90;6.28;;;17.50;99.90;;;;;;5013179;28;20041;-73
2022/09/05 05:56:59;;;;;;;7.05;6.35;;;17.50;99.90;;;;;;5012454;28;20117;-71
2022/09/05 06:00:20;;;;;;;9.27;6.43;;;17.80;99.90;;;;;;5008025;28;20033;-72
2022/09/05 06:03:04;;;;;;;6.72;6.00;;;17.70;99.90;;;;;;4987026;28;20050;-71
2022/09/05 06:05:49;;;;;;;9.20;6.68;;;18.30;99.90;;;;;;5020052;28;20048;-71
2022/09/05 06:08:31;;;;;;;7.70;6.47;;;17.70;99.90;;;;;;5016676;28;20407;-72
2022/09/05 06:11:17;;;;;;;6.57;5.93;;;18.10;99.90;;;;;;5023304;28;20041;-73
2022/09/05 06:14:17;;;;;;;12.25;7.50;;;17.90;99.90;;;;;;5018496;28;20060;-72
2022/09/05 06:17:24;;;;;;;13.02;6.75;;;18.00;99.90;;;;;;5007924;28;20042;-73
2022/09/05 06:20:37;;;;;;;8.10;6.30;;;18.10;99.90;;;;;;5009857;28;20527;-73
2022/09/05 06:23:22;;;;;;;11.35;6.05;;;18.10;99.90;;;;;;4918252;28;20054;-71
2022/09/05 06:26:33;;;;;;;7.40;6.70;;;19.10;99.90;;;;;;5008972;28;20060;-71
2022/09/05 06:29:05;;;;;;;7.68;5.53;;;18.50;99.90;;;;;;5009372;28;20503;-73
2022/09/05 06:31:58;;;;;;;9.55;6.35;;;18.50;99.90;;;;;;5006702;28;20570;-73
2022/09/05 06:34:23;;;;;;;11.63;6.75;;;18.60;99.90;;;;;;5010959;28;20091;-73
2022/09/05 06:37:25;;;;;;;14.32;6.20;;;18.70;99.90;;;;;;5002877;28;20045;-73
2022/09/05 06:39:57;;;;;;;10.90;6.60;;;18.80;99.90;;;;;;4991526;28;20049;-74
2022/09/05 06:42:31;;;;;;;16.20;6.43;;;19.40;99.90;;;;;;4980874;28;20129;-74
2022/09/05 06:45:03;;;;;;;13.52;6.68;;;18.90;99.90;;;;;;4996292;28;20350;-73
2022/09/05 06:47:32;;;;;;;8.18;5.80;;;18.90;99.90;;;;;;4999939;28;20081;-74
2022/09/05 06:50:10;;;;;;;11.10;6.65;;;19.10;99.90;;;;;;4991661;28;20506;-73
2022/09/05 06:52:51;;;;;;;9.95;6.15;;;19.30;99.90;;;;;;5010983;28;20042;-73
2022/09/05 06:55:38;;;;;;;11.30;6.18;;;19.20;99.90;;;;;;5010726;28;20403;-73
2022/09/05 06:58:19;;;;;;;7.53;6.05;;;19.30;99.90;;;;;;5010382;28;20091;-73
2022/09/05 07:00:48;;;;;;;9.55;6.38;;;19.50;99.90;;;;;;4994726;28;20128;-73
2022/09/05 07:03:40;;;;;;;8.00;6.10;;;19.50;99.90;;;;;;5010957;28;20115;-73
2022/09/05 07:06:10;;;;;;;11.05;6.38;;;19.50;99.90;;;;;;4980192;28;20049;-73
2022/09/05 07:08:52;;;;;;;9.50;6.53;;;19.60;99.90;;;;;;5012269;28;20042;-73
2022/09/05 07:11:20;;;;;;;8.68;6.13;;;19.80;99.90;;;;;;5010710;28;20089;-73
2022/09/05 07:14:09;;;;;;;7.75;6.30;;;20.00;99.90;;;;;;5010563;28;20137;-73
2022/09/05 07:16:39;;;;;;;11.02;6.85;;;19.70;99.90;;;;;;5011897;28;20034;-73
2022/09/05 07:19:16;;;;;;;8.48;6.00;;;20.00;99.90;;;;;;5002673;28;20358;-73
2022/09/05 07:21:49;;;;;;;8.85;6.47;;;19.90;99.90;;;;;;5007876;28;20038;-73
2022/09/05 07:24:19;;;;;;;9.27;6.13;;;20.10;99.90;;;;;;5007407;28;20081;-73
2022/09/05 07:26:46;;;;;;;8.55;6.43;;;20.80;99.90;;;;;;5000174;28;20034;-73
2022/09/05 07:29:18;;;;;;;8.15;6.32;;;21.30;99.90;;;;;;5009731;28;20053;-73
2022/09/05 07:31:47;;;;;;;10.27;7.45;;;20.50;99.90;;;;;;5010477;28;20503;-73
2022/09/05 07:34:29;;;;;;;8.85;6.25;;;20.50;99.90;;;;;;5011279;28;20111;-74
2022/09/05 07:36:57;;;;;;;7.90;7.10;;;20.70;99.90;;;;;;5010508;28;20030;-73
2022/09/05 07:39:27;;;;;;;8.70;6.40;;;20.90;99.90;;;;;;5009972;28;20038;-73
2022/09/05 07:41:57;;;;;;;11.23;7.80;;;20.90;99.90;;;;;;5010295;28;20080;-74
2022/09/05 07:44:28;;;;;;;20.52;7.28;;;21.40;99.90;;;;;;5010043;28;20088;-74
2022/09/05 07:47:05;;;;;;;10.48;6.53;;;21.10;99.90;;;;;;5010286;28;20038;-73
2022/09/05 07:49:34;;;;;;;9.07;6.63;;;21.50;99.90;;;;;;4993878;28;20046;-73
2022/09/05 07:52:22;;;;;;;7.10;6.32;;;21.50;99.90;;;;;;5010249;28;20403;-73
2022/09/05 07:54:52;;;;;;;9.10;5.60;;;21.40;99.90;;;;;;4993535;28;20052;-73
2022/09/05 07:57:26;;;;;;;7.78;6.35;;;22.20;99.90;;;;;;5005944;28;20041;-72
2022/09/05 08:00:06;;;;;;;9.30;6.65;;;21.90;99.90;;;;;;5003845;28;20042;-73
2022/09/05 08:02:31;;;;;;;7.15;6.40;;;21.80;99.90;;;;;;5011197;28;20069;-74
2022/09/05 08:05:03;;;;;;;6.75;6.05;;;22.10;99.90;;;;;;5009503;28;20081;-70
2022/09/05 08:07:34;;;;;;;8.25;7.43;;;;;;;;;;5009888;28;20038;-72
2022/09/05 08:10:12;;;;;;;7.10;6.13;;;;;;;;;;5011322;28;20412;-73
2022/09/05 08:12:44;;;;;;;9.85;6.43;;;;;;;;;;5009695;28;20050;-72
2022/09/05 08:15:23;;;;;;;7.82;6.70;;;;;;;;;;5009939;28;20125;-73
2022/09/05 08:17:52;;;;;;;13.15;6.50;;;;;;;;;;5011417;28;20042;-73
2022/09/05 08:20:21;;;;;;;10.38;7.40;;;;;;;;;;5009854;28;20164;-73
2022/09/05 08:22:56;;;;;;;8.38;5.82;;;;;;;;;;5009705;28;20049;-73
2022/09/05 08:25:27;;;;;;;7.28;6.13;;;;;;;;;;5010765;28;20095;-73
2022/09/05 08:27:59;;;;;;;7.30;6.60;;;;;;;;;;5010007;28;20088;-74
2022/09/05 08:30:25;;;;;;;;;;;;;;;;;;5010320;28;20042;-74
2022/09/05 08:33:06;;;;;;;12.32;6.50;;;22.90;99.90;;;;;;5009521;28;19917;-73
2022/09/05 08:35:54;;;;;;;6.75;5.70;;;23.30;99.90;;;;;;5009640;28;20100;-74
2022/09/05 08:38:21;;;;;;;9.00;6.65;;;23.10;99.90;;;;;;5009674;28;20038;-73
2022/09/05 08:40:51;;;;;;;7.38;6.15;;;23.20;99.90;;;;;;5009768;28;20046;-74
2022/09/05 08:43:33;;;;;;;9.20;5.80;;;23.30;99.90;;;;;;5010141;28;20056;-73
2022/09/05 08:46:04;;;;;;;10.80;6.03;;;23.20;99.90;;;;;;5010129;28;20124;-73
2022/09/05 08:49:02;;;;;;;8.10;5.75;;;24.10;99.90;;;;;;5014404;28;20516;-74
2022/09/05 08:51:55;;;;;;;6.95;6.25;;;23.50;99.90;;;;;;5013556;28;20049;-72
2022/09/05 08:54:21;;;;;;;6.60;5.82;;;23.50;99.90;;;;;;5012737;28;20042;-72
2022/09/05 08:57:06;;;;;;;7.43;6.55;;;23.50;99.90;;;;;;5014573;28;20046;-74
2022/09/05 08:59:51;;;;;;;6.53;5.25;;;23.60;99.30;;;;;;5013015;28;20563;-74
2022/09/05 09:02:44;;;;;;;6.80;5.55;;;23.80;99.10;;;;;;5013105;28;20052;-74
2022/09/05 09:05:22;;;;;;;8.90;5.55;;;24.00;99.10;;;;;;5014184;28;20113;-74
2022/09/05 09:08:13;;;;;;;8.07;5.80;;;24.10;98.80;;;;;;5013051;28;20111;-74
2022/09/05 09:10:54;;;;;;;8.23;5.60;;;24.10;98.50;;;;;;5012893;28;20033;-74
2022/09/05 09:13:41;;;;;;;6.85;5.03;;;24.20;98.40;;;;;;5014620;28;20053;-75
2022/09/05 09:16:18;;;;;;;7.82;5.22;;;24.40;98.50;;;;;;5012743;28;20045;-74
2022/09/05 09:19:05;;;;;;;7.60;4.35;;;24.70;98.50;;;;;;5012767;28;20034;-74
2022/09/05 09:21:46;;;;;;;8.23;5.25;;;24.80;98.90;;;;;;5071095;22;20071;-73
2022/09/05 09:24:26;;;;;;;8.68;5.80;;;24.80;99.00;;;;;;5053533;28;20103;-74
2022/09/05 09:27:08;;;;;;;6.38;5.38;;;24.90;98.30;;;;;;5043015;28;20041;-73
2022/09/05 09:29:39;;;;;;;8.27;5.72;;;25.00;98.70;;;;;;5045938;28;20037;-74
2022/09/05 09:32:15;;;;;;;7.53;5.72;;;25.00;98.50;;;;;;5044862;28;20033;-74
2022/09/05 09:34:50;;;;;;;6.65;4.68;;;25.10;98.50;;;;;;5032137;28;20056;-73
2022/09/05 09:37:37;;;;;;;6.07;5.45;;;25.20;97.90;;;;;;5033937;28;20120;-74
2022/09/05 09:40:24;;;;;;;6.40;5.15;;;25.20;97.80;;;;;;5033813;28;20037;-74
2022/09/05 09:43:11;;;;;;;5.65;4.53;;;25.20;98.60;;;;;;5032960;28;20045;-74
2022/09/05 09:45:55;;;;;;;5.28;4.70;;;25.50;97.70;;;;;;5032445;28;20052;-74
2022/09/05 09:48:23;;;;;;;5.78;4.47;;;25.60;97.50;;;;;;5032436;28;20069;-74
2022/09/05 09:51:21;;;;;;;8.27;4.25;;;25.40;98.10;;;;;;5032294;28;20048;-74
2022/09/05 09:54:09;;;;;;;5.07;3.90;;;25.70;97.60;;;;;;5017939;28;20033;-73
2022/09/05 09:57:11;;;;;;;5.13;4.20;;;25.70;97.70;;;;;;5012393;28;20129;-76
2022/09/05 09:59:55;;;;;;;4.97;3.60;;;25.80;97.40;;;;;;4995657;28;20038;-75
2022/09/05 10:02:35;;;;;;;5.65;5.05;;;26.10;97.00;;;;;;5031587;28;20558;-75
2022/09/05 10:05:00;;;;;;;5.78;3.97;;;26.10;96.90;;;;;;5045392;28;20041;-75
2022/09/05 10:08:04;;;;;;;4.25;3.33;;;26.00;97.20;;;;;;5051734;28;20053;-75
2022/09/05 10:10:32;;;;;;;4.55;4.13;;;26.30;96.80;;;;;;5035087;28;20507;-74
2022/09/05 10:13:15;;;;;;;5.38;3.88;;;27.20;97.20;;;;;;5052867;28;20545;-75
2022/09/05 10:16:27;;;;;;;3.42;3.13;;;26.40;97.00;;;;;;5034761;28;20433;-75
2022/09/05 10:19:08;;;;;;;3.67;3.30;;;26.80;96.20;;;;;;5019618;28;20036;-74
2022/09/05 10:21:48;;;;;;;4.75;3.70;;;26.70;96.00;;;;;;5040463;28;20045;-75
2022/09/05 10:24:32;;;;;;;6.63;3.50;;;26.80;95.80;;;;;;5037214;28;20076;-75
2022/09/05 10:27:27;;;;;;;4.50;3.70;;;26.70;95.90;;;;;;5032526;28;20056;-74
2022/09/05 10:29:59;;;;;;;5.45;3.00;;;27.00;95.60;;;;;;5032267;28;20041;-75
2022/09/05 10:32:40;;;;;;;4.35;2.90;;;27.00;95.30;;;;;;5043386;28;20052;-74
2022/09/05 10:35:35;;;;;;;2.90;2.58;;;27.20;95.60;;;;;;5016605;28;20096;-75
2022/09/05 10:38:11;;;;;;;7.88;2.50;;;27.00;95.40;;;;;;5027568;28;20584;-72
2022/09/05 10:40:42;;;;;;;2.63;2.40;;;27.50;95.60;;;;;;5035624;28;20034;-74
2022/09/05 10:43:21;;;;;;;4.50;2.83;;;27.40;94.50;;;;;;5016921;28;20053;-75
2022/09/05 10:46:12;;;;;;;5.32;2.45;;;27.30;94.90;;;;;;5021675;28;20047;-73
2022/09/05 10:48:47;;;;;;;3.50;2.20;;;27.60;95.50;;;;;;5025792;28;20046;-74
2022/09/05 10:51:28;;;;;;;5.03;2.75;;;27.60;94.90;;;;;;5034175;28;20048;-76
2022/09/05 10:54:26;;;;;;;7.50;2.83;;;27.80;94.80;;;;;;5029634;28;20124;-74
2022/09/05 10:57:07;;;;;;;3.20;2.30;;;27.40;94.80;;;;;;5014542;28;20033;-72
2022/09/05 10:59:42;;;;;;;5.63;3.10;;;27.50;94.90;;;;;;5014108;28;20507;-73
2022/09/05 11:02:18;;;;;;;5.43;2.97;;;27.30;95.70;;;;;;5031986;28;20092;-72
2022/09/05 11:05:05;;;;;;;2.80;2.58;;;28.90;96.10;;;;;;5030835;28;20041;-73
2022/09/05 11:07:33;;;;;;;2.58;2.38;;;27.60;95.10;;;;;;5031102;28;20083;-73
2022/09/05 11:10:10;;;;;;;4.30;3.17;;;27.90;95.00;;;;;;5032556;28;20053;-72
2022/09/05 11:12:55;;;;;;;4.70;3.05;;;28.00;94.70;;;;;;5012438;28;20504;-72
2022/09/05 11:15:30;;;;;;;3.33;3.00;;;28.00;94.80;;;;;;5012019;28;20125;-73
2022/09/05 11:18:03;;;;;;;2.47;2.13;;;28.90;95.20;;;;;;4994913;28;20081;-73
2022/09/05 11:20:43;;;;;;;6.35;2.83;;;28.90;94.80;;;;;;4994376;28;20045;-73
2022/09/05 11:23:23;;;;;;;4.15;2.88;;;27.80;94.70;;;;;;5010682;28;20053;-74
2022/09/05 11:26:05;;;;;;;5.95;2.60;;;28.30;95.40;;;;;;5010547;28;20034;-75
2022/09/05 11:28:43;;;;;;;2.63;1.88;;;27.60;95.10;;;;;;5023236;28;20033;-73
2022/09/05 11:31:16;;;;;;;5.88;2.28;;;28.00;94.10;;;;;;5013929;28;20426;-75
2022/09/05 11:34:06;;;;;;;3.50;2.15;;;28.20;94.80;;;;;;5030258;28;20063;-74
2022/09/05 11:36:43;;;;;;;3.45;2.38;;;27.80;94.20;;;;;;5031726;28;20047;-74
2022/09/05 11:39:58;;;;;;;5.28;2.22;;;28.60;94.90;;;;;;5031866;28;20045;-75
2022/09/05 11:42:31;;;;;;;4.55;2.38;;;28.20;94.00;;;;;;5032612;28;20387;-75
2022/09/05 11:45:28;;;;;;;2.55;1.90;;;28.50;93.80;;;;;;5030170;28;20060;-75
2022/09/05 11:48:25;;;;;;;2.92;2.50;;;28.40;93.10;;;;;;5031594;28;20045;-75
2022/09/05 11:51:15;;;;;;;3.03;1.98;;;28.30;93.40;;;;;;5013937;28;20514;-75
2022/09/05 11:53:53;;;;;;;5.80;2.30;;;28.10;93.40;;;;;;5013587;28;20064;-75
2022/09/05 11:56:34;;;;;;;4.93;2.70;;;28.00;94.10;;;;;;5030450;28;20121;-75
2022/09/05 11:59:16;;;;;;;3.47;2.10;;;28.10;93.90;;;;;;5030152;28;20670;-75
2022/09/05 12:01:53;;;;;;;5.25;2.40;;;29.70;94.40;;;;;;5031629;28;20069;-75
2022/09/05 12:04:37;;;;;;;3.03;2.33;;;28.60;93.30;;;;;;5029813;28;20041;-75
2022/09/05 12:07:22;;;;;;;3.55;2.30;;;28.10;93.10;;;;;;5029963;28;20128;-74
2022/09/05 12:10:22;;;;;;;4.25;2.30;;;28.30;94.00;;;;;;5013897;28;20399;-75
2022/09/05 12:13:16;;;;;;;3.25;2.30;;;28.40;93.50;;;;;;5030110;28;20047;-75
2022/09/05 12:15:45;;;;;;;4.38;2.20;;;28.00;93.80;;;;;;5030078;28;20049;-76
2022/09/05 12:18:14;;;;;;;5.75;2.03;;;29.10;94.30;;;;;;5031447;28;20112;-75
2022/09/05 12:20:53;;;;;;;3.53;2.10;;;27.80;93.60;;;;;;5013950;28;20049;-75
2022/09/05 12:23:45;;;;;;;4.43;2.72;;;28.30;93.70;;;;;;5033869;28;20438;-74
2022/09/05 12:26:39;;;;;;;4.03;1.73;;;28.20;93.40;;;;;;5034000;28;20049;-74
2022/09/05 12:29:26;;;;;;;2.50;2.03;;;28.60;92.50;;;;;;5033825;28;20047;-74
2022/09/05 12:31:59;;;;;;;2.75;2.10;;;29.10;93.20;;;;;;5033713;28;20050;-74
2022/09/05 12:34:51;;;;;;;;;;;29.00;93.20;;;;;;5033875;28;20056;-75
2022/09/05 12:37:22;;;;;;;1.58;1.48;;;29.30;92.90;;;;;;5033841;28;19924;-74
2022/09/05 12:40:11;;;;;;;2.78;2.10;;;29.10;91.60;;;;;;5017047;28;20487;-74
2022/09/05 12:42:54;;;;;;;2.33;1.90;;;29.10;91.00;;;;;;5034986;28;20072;-74
2022/09/05 12:45:40;;;;;;;3.00;1.55;;;29.50;91.90;;;;;;5034483;28;20045;-74
2022/09/05 12:48:27;;;;;;;4.20;1.60;;;29.10;91.60;;;;;;5033558;28;20076;-74
2022/09/05 12:51:10;;;;;;;5.38;1.73;;;29.10;91.60;;;;;;5033384;28;20045;-74
2022/09/05 12:53:45;;;;;;;4.30;2.03;;;29.00;91.90;;;;;;5016741;28;20470;-74
2022/09/05 12:56:25;;;;;;;3.60;2.10;;;28.90;92.50;;;;;;5016490;28;20499;-74
2022/09/05 12:58:53;;;;;;;2.47;1.70;;;28.90;92.30;;;;;;5034369;28;20048;-74
2022/09/05 13:01:39;;;;;;;6.10;2.13;;;30.20;92.20;;;;;;5033268;28;20120;-74
2022/09/05 13:04:17;;;;;;;2.17;1.60;;;29.20;91.50;;;;;;5034303;28;20120;-75
2022/09/05 13:07:10;;;;;;;3.28;2.05;;;31.10;92.80;;;;;;5033329;28;20049;-74
2022/09/05 13:09:55;;;;;;;3.65;1.67;;;29.70;91.90;;;;;;5033118;28;20044;-74
2022/09/05 13:12:23;;;;;;;2.33;1.92;;;29.60;92.60;;;;;;5033260;28;20041;-74
2022/09/05 13:14:57;;;;;;;4.25;1.85;;;29.70;91.70;;;;;;5033991;28;20060;-74
2022/09/05 13:17:47;;;;;;;3.67;1.50;;;29.90;91.60;;;;;;5034081;28;20043;-74
2022/09/05 13:20:32;;;;;;;3.28;1.77;;;30.00;91.30;;;;;;5032906;28;20044;-73
2022/09/05 13:23:16;;;;;;;3.67;1.77;;;30.10;91.60;;;;;;5038685;28;20041;-73
2022/09/05 13:25:44;;;;;;;2.00;1.70;;;30.10;91.60;;;;;;5024420;28;20037;-73
2022/09/05 13:28:13;;;;;;;7.30;1.80;;;30.00;91.50;;;;;;5041379;28;20454;-73
2022/09/05 13:30:53;;;;;;;2.45;1.70;;;30.30;91.70;;;;;;5043795;28;20043;-73
2022/09/05 13:33:44;;;;;;;2.10;1.45;;;30.20;91.90;;;;;;5040095;28;20167;-73
2022/09/05 13:36:25;;;;;;;3.83;1.50;;;30.20;90.90;;;;;;5044078;28;20060;-73
2022/09/05 13:39:00;;;;;;;4.35;1.63;;;30.40;90.50;;;;;;5043707;28;20458;-74
2022/09/05 13:41:58;;;;;;;3.78;2.28;;;30.40;89.20;;;;;;5044267;28;20033;-74
2022/09/05 13:44:25;;;;;;;2.55;1.75;;;30.40;90.40;;;;;;5028062;28;20053;-74
2022/09/05 13:47:21;;;;;;;2.25;1.55;;;30.50;90.50;;;;;;5041053;28;20041;-73
2022/09/05 13:49:55;;;;;;;3.15;1.27;;;31.40;90.60;;;;;;5043379;28;20047;-74
2022/09/05 13:52:24;;;;;;;3.22;1.70;;;30.80;90.70;;;;;;5040168;28;20083;-73
2022/09/05 13:54:56;;;;;;;3.63;1.67;;;30.50;90.20;;;;;;5040317;28;20503;-74
2022/09/05 13:57:46;;;;;;;3.65;1.50;;;30.40;90.60;;;;;;5041778;28;20079;-74
2022/09/05 14:00:17;;;;;;;3.25;1.52;;;30.70;90.80;;;;;;5042674;28;20465;-73
2022/09/05 14:02:49;;;;;;;2.22;1.42;;;30.10;91.20;;;;;;5032134;28;20499;-74
2022/09/05 14:05:33;;;;;;;;;;;29.70;90.70;;;;;;5032269;28;20045;-74
2022/09/05 14:08:22;;;;;;;2.08;1.60;;;29.90;90.60;;;;;;5032462;28;19967;-73